Time;durP1;ratioP1;P1;durP2;ratioP2;P2;SDS_P1;SDS_P2;PMS_P1;PMS_P2;Temp;Humidity;BMP_temperature;BMP_pressure;BME280_temperature;BME280_humidity;BME280_pressure;Samples;Min_cycle;Max_cycle;Signal;HPM_P1;HPM_P2
2022/06/02 00:01:24;;;;;;;4.93;3.97;;;;;;;10.19;84.20;102000.44;5030745;28;20029;-35
2022/06/02 00:03:58;;;;;;;6.68;4.10;;;;;;;10.06;84.19;101998.50;5031267;28;20045;-35
2022/06/02 00:06:42;;;;;;;4.97;4.15;;;;;;;10.07;84.76;101997.47;5031102;28;20030;-35
2022/06/02 00:09:31;;;;;;;4.68;3.83;;;;;;;10.06;84.72;101998.50;5034211;28;20072;-35
2022/06/02 00:12:06;;;;;;;4.60;4.20;;;;;;;9.93;85.24;101984.91;5093311;28;20038;-35
2022/06/02 00:14:51;;;;;;;6.70;4.45;;;;;;;10.00;84.78;102005.56;5093355;28;20077;-34
2022/06/02 00:17:31;;;;;;;4.13;3.72;;;;;;;9.93;85.28;102001.97;5092127;28;20048;-35
2022/06/02 00:20:08;;;;;;;5.63;3.83;;;;;;;9.87;85.25;102002.75;5093222;28;20028;-35
2022/06/02 00:22:42;;;;;;;;;;;;;;;10.09;83.16;102002.66;5094125;28;20063;-35
2022/06/02 00:25:26;;;;;;;4.53;4.13;;;;;;;9.96;84.69;102009.69;5092906;28;19908;-35
2022/06/02 00:28:12;;;;;;;4.90;4.25;;;;;;;9.82;85.32;102013.31;5093408;28;20101;-35
2022/06/02 00:30:54;;;;;;;4.95;4.50;;;;;;;9.85;85.78;102007.50;5092191;28;20032;-35
2022/06/02 00:33:55;;;;;;;4.65;4.25;;;;;;;9.74;84.57;101989.16;5093208;28;20020;-35
2022/06/02 00:36:41;;;;;;;4.25;3.85;;;;;;;9.82;84.79;102018.72;5093329;28;20107;-35
2022/06/02 00:39:10;;;;;;;5.47;4.43;;;;;;;9.78;84.87;102018.28;5093319;28;20032;-35
2022/06/02 00:41:47;;;;;;;4.90;4.50;;;;;;;9.65;85.55;102017.34;5092722;28;20024;-35
2022/06/02 00:44:34;;;;;;;5.15;4.70;;;;;;;9.59;85.43;102020.84;5093148;28;20040;-35
2022/06/02 00:47:26;;;;;;;5.28;4.78;;;;;;;9.58;86.50;102016.47;5093508;28;20028;-35
2022/06/02 00:50:05;;;;;;;5.38;4.78;;;;;;;9.51;86.50;102028.03;5092635;28;20039;-35
2022/06/02 00:52:54;;;;;;;5.07;4.57;;;;;;;9.41;86.36;102016.72;5093089;28;20024;-35
2022/06/02 00:58:22;;;;;;;5.45;4.75;;;;;;;9.50;85.95;102020.97;5092372;28;20131;-35
2022/06/02 01:00:53;;;;;;;4.93;4.53;;;;;;;9.44;86.55;102021.75;5092429;28;20035;-35
2022/06/02 01:03:26;;;;;;;5.28;4.78;;;;;;;9.25;87.69;102017.84;5092824;28;20040;-35
2022/06/02 01:06:02;;;;;;;5.28;4.80;;;;;;;9.35;87.30;102012.13;5092160;28;20110;-35
2022/06/02 01:08:45;;;;;;;6.55;5.18;;;;;;;9.40;86.81;102022.34;5092751;28;20372;-35
2022/06/02 01:11:27;;;;;;;4.82;4.25;;;;;;;9.31;86.92;102008.13;5092564;28;20089;-35
2022/06/02 01:14:01;;;;;;;4.85;4.43;;;;;;;9.32;86.66;102008.97;5093187;28;20020;-35
2022/06/02 01:16:52;;;;;;;5.10;4.60;;;;;;;9.36;86.65;102019.19;5093271;28;20034;-35
2022/06/02 01:19:51;;;;;;;5.00;4.57;;;;;;;9.28;86.70;102013.94;5092085;28;20068;-35
2022/06/02 01:22:32;;;;;;;5.55;4.65;;;;;;;9.26;86.96;102015.97;5093095;28;20106;-35
2022/06/02 01:25:10;;;;;;;5.45;4.90;;;;;;;9.20;87.29;102009.50;5092696;28;20028;-35
2022/06/02 01:28:11;;;;;;;5.13;4.55;;;;;;;9.20;87.32;102016.75;5092386;28;20040;-35
2022/06/02 01:31:06;;;;;;;5.55;5.05;;;;;;;9.17;86.79;102014.44;5092972;28;20039;-35
2022/06/02 01:33:31;;;;;;;5.15;4.65;;;;;;;9.11;87.36;102021.44;5092792;28;20390;-35
2022/06/02 01:36:08;;;;;;;5.60;5.10;;;;;;;9.06;87.14;102006.88;5092477;28;20036;-35
2022/06/02 01:39:00;;;;;;;5.68;5.18;;;;;;;9.07;87.84;102019.31;5091923;28;20065;-35
2022/06/02 01:41:37;;;;;;;6.05;5.45;;;;;;;9.05;88.03;102016.00;5093484;28;20036;-35
2022/06/02 01:44:31;;;;;;;5.45;4.95;;;;;;;9.05;87.61;102022.22;5096373;28;20032;-35
2022/06/02 01:47:05;;;;;;;5.78;5.18;;;;;;;8.93;87.43;102013.81;5096244;28;20024;-35
2022/06/02 01:49:49;;;;;;;7.00;5.65;;;;;;;9.04;87.89;102017.84;5093927;28;20047;-35
2022/06/02 01:52:50;;;;;;;5.80;5.20;;;;;;;9.03;86.69;102022.44;5096174;28;20024;-35
2022/06/02 01:55:39;;;;;;;5.55;5.05;;;;;;;8.92;87.81;102012.13;5095986;28;20089;-35
2022/06/02 01:58:35;;;;;;;5.60;5.10;;;;;;;8.93;87.45;102010.25;5033316;28;20064;-35
2022/06/02 02:01:18;;;;;;;5.97;5.32;;;;;;;8.85;88.03;102018.47;5032841;28;20075;-35
2022/06/02 02:03:49;;;;;;;6.20;5.47;;;;;;;8.76;88.29;102018.59;5032980;28;20030;-35
2022/06/02 02:06:26;;;;;;;6.18;5.57;;;;;;;8.74;89.06;102015.25;5033201;28;20073;-35
2022/06/02 02:09:10;;;;;;;5.97;5.45;;;;;;;8.83;87.59;102013.25;5032756;28;20079;-35
2022/06/02 02:11:49;;;;;;;5.72;5.05;;;;;;;8.79;88.32;102001.22;5033395;28;20030;-35
2022/06/02 02:14:20;;;;;;;6.63;5.95;;;;;;;8.85;87.84;102016.63;5032851;28;20021;-35
2022/06/02 02:17:23;;;;;;;6.50;5.30;;;;;;;8.81;88.31;102017.19;5032724;28;20557;-35
2022/06/02 02:20:10;;;;;;;5.72;5.20;;;;;;;8.76;87.68;102018.59;5033269;28;20041;-35
2022/06/02 02:22:54;;;;;;;6.15;5.55;;;;;;;8.79;87.88;102022.78;5032644;28;20048;-35
2022/06/02 02:25:43;;;;;;;6.13;5.53;;;;;;;8.81;87.08;102026.13;5032741;28;20029;-34
2022/06/02 02:28:34;;;;;;;5.97;5.47;;;;;;;8.71;87.86;102018.31;5032453;28;20045;-35
2022/06/02 02:31:06;;;;;;;6.68;6.07;;;;;;;8.58;87.53;102015.47;5032808;28;20470;-35
2022/06/02 02:33:42;;;;;;;5.85;5.35;;;;;;;8.54;87.68;102018.72;5032727;28;20422;-35
2022/06/02 02:36:26;;;;;;;5.55;5.05;;;;;;;8.56;87.74;102027.47;5090117;28;20040;-35
2022/06/02 02:38:58;;;;;;;6.68;6.07;;;;;;;8.41;88.53;102033.72;5094396;28;20473;-35
2022/06/02 02:41:36;;;;;;;6.85;6.25;;;;;;;8.24;88.72;102016.03;5095181;28;20028;-35
2022/06/02 02:44:44;;;;;;;6.95;6.18;;;;;;;8.41;88.94;102032.91;5093911;28;20325;-35
2022/06/02 02:47:21;;;;;;;7.57;6.60;;;;;;;8.33;89.91;102041.88;5032393;28;20030;-35
2022/06/02 02:50:38;;;;;;;6.95;6.35;;;;;;;8.40;89.93;102042.84;5032459;28;20049;-35
2022/06/02 02:53:19;;;;;;;7.18;6.57;;;;;;;8.30;89.77;102044.97;5012093;28;20145;-35
2022/06/02 02:56:02;;;;;;;7.68;6.97;;;;;;;8.24;89.94;102040.28;5012380;28;20513;-35
2022/06/02 02:58:55;;;;;;;7.68;6.97;;;;;;;8.24;89.79;102041.13;5011992;28;20438;-35
2022/06/02 03:01:35;;;;;;;9.00;6.88;;;;;;;8.17;90.08;102044.78;5012289;28;20470;-35
2022/06/02 03:04:27;;;;;;;7.55;6.72;;;;;;;8.16;89.39;102054.72;5012080;28;20483;-34
2022/06/02 03:06:54;;;;;;;7.30;6.47;;;;;;;8.16;89.00;102052.03;5012499;28;20045;-35
2022/06/02 03:09:31;;;;;;;8.05;7.25;;;;;;;8.30;89.69;102055.75;5011749;28;20153;-35
2022/06/02 03:12:35;;;;;;;7.20;6.60;;;;;;;8.31;90.20;102057.41;5012009;28;20057;-35
2022/06/02 03:15:10;;;;;;;7.97;7.18;;;;;;;8.22;89.55;102053.13;4953936;29;20094;-35
2022/06/02 03:18:00;;;;;;;7.50;6.80;;;;;;;8.23;90.14;102054.78;4953355;29;20059;-35
2022/06/02 03:20:37;;;;;;;7.85;7.05;;;;;;;8.21;89.57;102059.53;4963183;28;20038;-35
2022/06/02 03:23:41;;;;;;;7.75;7.00;;;;;;;8.18;89.61;102068.00;4992340;28;20431;-35
2022/06/02 03:26:22;;;;;;;8.02;7.28;;;;;;;7.99;90.05;102048.66;4992326;28;20042;-35
2022/06/02 03:28:58;;;;;;;8.00;7.30;;;;;;;8.08;90.51;102070.97;5014416;28;20127;-34
2022/06/02 03:31:46;;;;;;;8.20;7.40;;;;;;;8.16;89.91;102075.44;5051345;28;20078;-35
2022/06/02 03:34:30;;;;;;;7.45;6.70;;;;;;;8.10;89.66;102073.47;5051262;28;20021;-35
2022/06/02 03:37:31;;;;;;;8.13;7.32;;;;;;;8.05;90.23;102078.56;5051612;28;20025;-35
2022/06/02 03:40:15;;;;;;;8.65;7.53;;;;;;;8.05;90.29;102083.94;5051443;28;20043;-35
2022/06/02 03:42:57;;;;;;;8.65;7.38;;;;;;;8.12;89.96;102082.22;5051592;28;20040;-35
2022/06/02 03:45:28;;;;;;;7.90;7.10;;;;;;;8.09;89.70;102079.88;5050862;28;20037;-35
2022/06/02 03:48:19;;;;;;;8.35;7.40;;;;;;;8.15;89.65;102084.50;5051490;28;20032;-35
2022/06/02 03:51:04;;;;;;;10.13;7.80;;;;;;;8.08;90.14;102084.44;5053949;28;20037;-35
2022/06/02 03:53:37;;;;;;;8.40;7.63;;;;;;;8.06;90.81;102085.66;5093406;28;20063;-35
2022/06/02 03:56:28;;;;;;;8.88;8.00;;;;;;;8.03;90.64;102091.41;5093572;28;20095;-34
2022/06/02 03:59:22;;;;;;;8.52;7.82;;;;;;;8.03;90.76;102086.84;5093353;28;20024;-35
2022/06/02 04:02:09;;;;;;;8.52;7.78;;;;;;;8.10;90.37;102093.19;5093442;28;20027;-35
2022/06/02 04:05:04;;;;;;;9.05;8.20;;;;;;;8.04;90.27;102093.06;5092310;28;20031;-35
2022/06/02 04:08:08;;;;;;;9.52;8.63;;;;;;;8.12;90.18;102098.38;5093690;28;20088;-35
2022/06/02 04:10:49;;;;;;;9.68;8.57;;;;;;;8.10;90.72;102095.88;5089894;28;20036;-35
2022/06/02 04:13:59;;;;;;;10.00;9.02;;;;;;;8.14;90.67;102099.00;5093322;28;20042;-35
2022/06/02 04:16:42;;;;;;;10.32;9.32;;;;;;;8.08;91.25;102103.28;5010822;28;20119;-35
2022/06/02 04:22:40;;;;;;;9.75;8.75;;;;;;;8.11;91.50;102102.09;5010913;28;20111;-35
2022/06/02 04:25:22;;;;;;;11.70;9.00;;;;;;;8.12;91.51;102109.16;5011301;28;20120;-35
2022/06/02 04:28:21;;;;;;;10.48;9.43;;;;;;;8.20;92.04;102109.91;5010648;28;20038;-35
2022/06/02 04:31:06;;;;;;;10.38;9.38;;;;;;;8.20;92.51;102117.16;5010810;28;20429;-35
2022/06/02 04:33:42;;;;;;;10.55;9.60;;;;;;;8.16;92.11;102105.06;5011246;28;20042;-35
2022/06/02 04:36:26;;;;;;;11.37;10.37;;;;;;;8.37;92.67;102121.38;5011175;28;20034;-35
2022/06/02 04:39:26;;;;;;;11.55;10.45;;;;;;;8.47;93.31;102121.94;5011202;28;20291;-35
2022/06/02 04:42:32;;;;;;;10.80;9.82;;;;;;;8.55;93.17;102123.72;4952182;29;20468;-35
2022/06/02 04:45:11;;;;;;;10.88;9.88;;;;;;;8.57;93.54;102110.03;4951713;29;20047;-35
2022/06/02 04:47:48;;;;;;;10.63;9.65;;;;;;;8.67;91.52;102121.38;4952749;29;20134;-35
2022/06/02 04:50:27;;;;;;;11.32;10.32;;;;;;;8.58;93.17;102120.63;4952625;29;20067;-35
2022/06/02 04:53:06;;;;;;;10.57;9.60;;;;;;;8.70;93.03;102110.22;4966469;28;20490;-35
2022/06/02 04:55:40;;;;;;;12.13;11.02;;;;;;;8.82;93.24;102122.19;5010721;28;20030;-35
2022/06/02 04:58:21;;;;;;;11.55;10.50;;;;;;;9.01;93.91;102126.16;5010240;28;20076;-35
2022/06/02 05:01:07;;;;;;;12.70;11.50;;;;;;;9.20;93.01;102138.22;5010405;28;20034;-35
2022/06/02 05:04:01;;;;;;;12.05;10.88;;;;;;;9.31;92.33;102139.56;5011077;28;20026;-35
2022/06/02 05:06:36;;;;;;;10.70;9.63;;;;;;;9.35;88.39;102132.75;5010863;28;20056;-35
2022/06/02 05:09:11;;;;;;;12.27;11.18;;;;;;;9.40;91.06;102131.16;5010430;28;20057;-35
2022/06/02 05:11:48;;;;;;;12.05;10.95;;;;;;;9.46;89.73;102126.84;5010346;28;20077;-35
2022/06/02 05:14:24;;;;;;;12.02;10.77;;;;;;;9.63;90.64;102147.19;5010547;28;20112;-35
2022/06/02 05:17:27;;;;;;;11.98;10.88;;;;;;;9.70;89.47;102136.44;5012591;28;20030;-35
2022/06/02 05:20:07;;;;;;;13.95;12.60;;;;;;;9.77;91.26;102135.47;5097112;28;20048;-35
2022/06/02 05:22:33;;;;;;;12.48;11.38;;;;;;;9.85;89.15;102139.06;5096567;28;20036;-35
2022/06/02 05:25:39;;;;;;;12.63;11.40;;;;;;;9.99;91.60;102144.38;5096258;28;20055;-35
2022/06/02 05:28:42;;;;;;;11.98;10.98;;;;;;;10.10;91.35;102128.66;5096766;28;20406;-35
2022/06/02 05:31:27;;;;;;;11.43;10.43;;;;;;;10.24;90.16;102133.16;5096092;28;20081;-35
2022/06/02 05:34:21;;;;;;;13.57;12.38;;;;;;;10.37;90.29;102146.78;5095967;28;20511;-35
2022/06/02 05:37:04;;;;;;;12.00;11.00;;;;;;;10.47;89.52;102147.25;5096291;28;20123;-35
2022/06/02 05:39:35;;;;;;;12.27;11.05;;;;;;;10.55;87.62;102141.69;5095957;28;20032;-35
2022/06/02 05:42:09;;;;;;;12.57;11.45;;;;;;;10.64;88.09;102146.94;5096547;28;20047;-35
2022/06/02 05:44:41;;;;;;;12.02;11.02;;;;;;;10.66;87.75;102140.28;5096301;28;20093;-35
2022/06/02 05:47:20;;;;;;;12.70;11.60;;;;;;;10.75;88.44;102143.69;5095911;28;20036;-35
2022/06/02 05:50:07;;;;;;;12.43;11.30;;;;;;;10.86;86.86;102142.28;5094645;28;20028;-35
2022/06/02 05:52:35;;;;;;;13.18;11.98;;;;;;;10.88;88.04;102138.31;5096095;28;20111;-35
2022/06/02 05:55:06;;;;;;;10.70;9.80;;;;;;;11.11;87.56;102142.56;5095752;28;20090;-35
2022/06/02 05:57:54;;;;;;;13.20;11.90;;;;;;;11.22;87.46;102144.69;5095369;28;20039;-35
2022/06/02 06:00:20;;;;;;;13.18;11.98;;;;;;;11.27;86.72;102145.78;5096152;28;20390;-35
2022/06/02 06:03:01;;;;;;;11.27;10.35;;;;;;;11.32;87.02;102148.69;5095553;28;20472;-35
2022/06/02 06:05:52;;;;;;;11.45;10.55;;;;;;;11.39;86.88;102159.53;5095833;28;20024;-35
2022/06/02 06:08:40;;;;;;;11.88;10.65;;;;;;;11.31;86.99;102138.03;5095527;28;20059;-35
2022/06/02 06:11:38;;;;;;;11.52;10.52;;;;;;;11.39;87.55;102153.28;5095728;28;20035;-35
2022/06/02 06:14:06;;;;;;;12.05;10.82;;;;;;;11.36;88.26;102157.22;5095606;28;20450;-35
2022/06/02 06:16:44;;;;;;;11.88;10.77;;;;;;;11.45;88.06;102166.84;5095156;28;20066;-35
2022/06/02 06:19:40;;;;;;;10.82;9.93;;;;;;;11.53;87.92;102165.81;5095644;28;20054;-34
2022/06/02 06:22:18;;;;;;;9.93;9.00;;;;;;;11.58;87.27;102152.50;5095826;28;20036;-35
2022/06/02 06:25:02;;;;;;;10.60;9.63;;;;;;;11.78;86.86;102171.50;5095123;28;20028;-35
2022/06/02 06:27:36;;;;;;;10.77;9.77;;;;;;;11.85;87.54;102173.19;5094744;28;20040;-35
2022/06/02 06:30:08;;;;;;;10.65;9.52;;;;;;;11.88;87.03;102174.66;5095636;28;20107;-35
2022/06/02 06:33:02;;;;;;;10.43;9.38;;;;;;;11.98;87.93;102177.78;5095797;28;20024;-35
2022/06/02 06:35:45;;;;;;;10.25;9.27;;;;;;;12.00;87.78;102170.28;5095649;28;20035;-35
2022/06/02 06:38:19;;;;;;;11.15;9.60;;;;;;;12.11;87.62;102174.25;5095333;28;20028;-35
2022/06/02 06:41:04;;;;;;;10.95;9.85;;;;;;;12.29;88.32;102176.31;5094607;28;20511;-35
2022/06/02 06:43:54;;;;;;;9.85;8.90;;;;;;;12.29;86.84;102179.03;5095587;28;20482;-35
2022/06/02 06:46:25;;;;;;;9.43;8.43;;;;;;;12.25;85.69;102185.91;5094764;28;20061;-35
2022/06/02 06:49:09;;;;;;;9.82;8.65;;;;;;;12.38;86.78;102177.78;5094449;28;20031;-35
2022/06/02 06:52:02;;;;;;;8.15;7.40;;;;;;;12.55;86.15;102186.31;5095472;28;20028;-35
2022/06/02 06:54:46;;;;;;;8.30;7.53;;;;;;;12.61;84.89;102189.00;5095099;28;20036;-35
2022/06/02 06:57:20;;;;;;;9.73;7.90;;;;;;;12.74;86.06;102187.34;5094758;28;20572;-35
2022/06/02 07:00:00;;;;;;;7.97;7.13;;;;;;;12.73;84.26;102194.63;5094915;28;20043;-35
2022/06/02 07:02:32;;;;;;;8.07;7.32;;;;;;;12.93;84.54;102202.69;5094867;28;20042;-35
2022/06/02 07:05:12;;;;;;;7.13;6.47;;;;;;;12.90;82.33;102181.44;5094458;28;20352;-35
2022/06/02 07:07:48;;;;;;;8.75;7.10;;;;;;;12.98;81.36;102197.50;5095027;28;20106;-35
2022/06/02 07:10:27;;;;;;;7.28;6.25;;;;;;;13.15;81.83;102197.84;5094424;28;20380;-35
2022/06/02 07:13:30;;;;;;;6.68;5.95;;;;;;;13.32;80.92;102203.63;5095164;28;20028;-35
2022/06/02 07:16:03;;;;;;;7.13;5.72;;;;;;;13.29;80.61;102199.47;5094188;28;20071;-35
2022/06/02 07:18:56;;;;;;;6.97;6.28;;;;;;;13.26;79.93;102208.06;5094506;28;20055;-35
2022/06/02 07:21:27;;;;;;;7.00;6.30;;;;;;;13.27;78.52;102212.44;5094388;28;20040;-35
2022/06/02 07:24:12;;;;;;;6.65;4.82;;;;;;;13.50;76.63;102220.06;5094236;28;20439;-35
2022/06/02 07:26:55;;;;;;;5.95;5.35;;;;;;;13.50;77.52;102211.06;5094856;28;20031;-35
2022/06/02 07:29:54;;;;;;;6.18;4.88;;;;;;;13.77;76.09;102215.31;5094511;28;20077;-35
2022/06/02 07:32:36;;;;;;;6.82;5.28;;;;;;;13.47;74.23;102225.94;5094511;28;20120;-35
2022/06/02 07:35:30;;;;;;;5.68;5.13;;;;;;;13.47;76.06;102225.94;5094211;28;20032;-35
2022/06/02 07:38:01;;;;;;;5.35;4.88;;;;;;;13.39;75.53;102228.91;5093951;28;20040;-35
2022/06/02 07:40:48;;;;;;;5.57;5.07;;;;;;;13.49;76.60;102226.56;5093469;28;20035;-35
2022/06/02 07:43:33;;;;;;;5.32;4.63;;;;;;;13.69;76.59;102231.88;5094550;28;20028;-35
2022/06/02 07:47:36;;;;;;;5.25;4.70;;;;;;;13.84;76.95;102231.56;5091217;27;20427;-35
2022/06/02 07:50:22;;;;;;;6.70;5.00;;;;;;;13.73;73.98;102229.56;5061899;28;20052;-35
2022/06/02 07:53:05;;;;;;;6.18;4.75;;;;;;;13.90;73.30;102227.97;5068117;28;20215;-35
2022/06/02 07:55:37;;;;;;;4.45;4.05;;;;;;;14.06;70.13;102235.63;5068257;28;20144;-35
2022/06/02 07:58:05;;;;;;;4.60;4.20;;;;;;;14.28;70.28;102233.34;5068073;28;20029;-35
2022/06/02 08:00:40;;;;;;;4.88;4.38;;;;;;;14.30;69.03;102222.22;5067930;28;20469;-35
2022/06/02 08:03:11;;;;;;;5.50;4.30;;;;;;;14.44;69.80;102229.22;5067861;28;20493;-35
2022/06/02 08:05:44;;;;;;;4.93;4.53;;;;;;;14.30;69.14;102225.81;5067461;28;20112;-35
2022/06/02 08:08:21;;;;;;;6.40;5.10;;;;;;;14.47;70.76;102230.69;5067774;28;20029;-35
2022/06/02 08:11:16;;;;;;;5.47;4.97;;;;;;;14.64;69.55;102227.22;5067784;28;20051;-35
2022/06/02 08:13:57;;;;;;;4.82;4.25;;;;;;;14.83;69.25;102229.94;5067500;28;20041;-35
2022/06/02 08:16:48;;;;;;;4.78;4.38;;;;;;;15.03;69.27;102227.84;5067979;28;20029;-35
2022/06/02 08:19:34;;;;;;;5.18;4.68;;;;;;;15.01;68.85;102221.78;5067426;28;20024;-35
2022/06/02 08:22:07;;;;;;;5.93;5.43;;;;;;;14.98;68.99;102229.56;5067224;28;20032;-35
2022/06/02 08:24:54;;;;;;;5.70;4.75;;;;;;;14.80;67.55;102227.69;5067248;28;20107;-35
2022/06/02 08:27:26;;;;;;;5.10;4.60;;;;;;;14.82;65.97;102226.38;5069229;28;20037;-35
2022/06/02 08:30:15;;;;;;;5.15;4.65;;;;;;;14.79;66.12;102224.13;5069901;28;20056;-35
2022/06/02 08:32:46;;;;;;;5.43;4.93;;;;;;;14.86;67.25;102229.50;5069996;28;20024;-35
2022/06/02 08:35:25;;;;;;;6.05;5.25;;;;;;;14.89;65.99;102223.59;5069362;28;20028;-35
2022/06/02 08:38:23;;;;;;;4.78;4.20;;;;;;;14.88;64.54;102221.91;5069861;28;20032;-35
2022/06/02 08:40:54;;;;;;;;;;;;;;;15.10;65.08;102225.03;5027962;28;20037;-35
2022/06/02 08:43:43;;;;;;;5.43;4.93;;;;;;;14.74;66.22;102215.81;5027545;28;19920;-35
2022/06/02 08:46:40;;;;;;;5.43;4.80;;;;;;;15.11;67.85;102226.69;5027649;28;20570;-35
2022/06/02 08:49:26;;;;;;;4.93;4.53;;;;;;;15.43;65.22;102228.19;5027391;28;20521;-35
2022/06/02 08:52:22;;;;;;;4.43;4.00;;;;;;;15.56;63.91;102229.88;5027699;28;20037;-35
2022/06/02 08:54:56;;;;;;;4.85;3.90;;;;;;;15.82;63.46;102236.09;5027118;28;20088;-35
2022/06/02 08:58:11;;;;;;;4.25;3.63;;;;;;;15.93;62.26;102229.81;5020041;28;20141;-35
2022/06/02 09:00:53;;;;;;;4.97;4.00;;;;;;;15.99;60.67;102242.53;5014741;28;20034;-35
2022/06/02 09:03:41;;;;;;;4.10;3.75;;;;;;;16.20;59.56;102236.53;5013706;28;20184;-35
2022/06/02 09:06:33;;;;;;;5.32;4.03;;;;;;;16.15;59.60;102241.00;5013371;28;20034;-35
2022/06/02 09:09:17;;;;;;;3.85;3.47;;;;;;;16.28;58.65;102238.06;5014036;28;20479;-35
2022/06/02 09:12:16;;;;;;;4.65;3.95;;;;;;;16.22;58.73;102234.38;5013651;28;20044;-35
2022/06/02 09:14:56;;;;;;;4.18;3.75;;;;;;;16.33;60.77;102231.91;5013566;28;20042;-35
2022/06/02 09:17:31;;;;;;;4.78;3.88;;;;;;;16.75;61.06;102232.69;5050861;28;20234;-35
2022/06/02 09:20:12;;;;;;;3.90;3.33;;;;;;;16.65;59.11;102227.78;5055144;28;20175;-35
2022/06/02 09:23:03;;;;;;;3.85;3.45;;;;;;;16.67;57.95;102220.16;5055175;28;20025;-35
2022/06/02 09:26:03;;;;;;;4.55;4.10;;;;;;;16.66;58.57;102217.69;5054878;28;20029;-35
2022/06/02 09:28:49;;;;;;;4.07;3.67;;;;;;;16.46;56.35;102234.41;5055769;28;20028;-35
2022/06/02 09:31:51;;;;;;;4.63;3.75;;;;;;;16.55;57.58;102229.44;5055410;28;20108;-35
2022/06/02 09:34:33;;;;;;;4.25;3.85;;;;;;;17.01;58.59;102223.13;5054894;28;20033;-35
2022/06/02 09:37:10;;;;;;;5.20;4.20;;;;;;;17.06;55.88;102225.97;5076023;28;20106;-35
2022/06/02 09:40:04;;;;;;;4.13;3.83;;;;;;;16.95;55.40;102218.63;5075204;28;20044;-35
2022/06/02 09:42:52;;;;;;;4.18;3.78;;;;;;;16.78;54.89;102221.25;5052640;28;20069;-35
2022/06/02 09:45:39;;;;;;;5.55;3.13;;;;;;;17.12;55.68;102219.53;4992994;28;20054;-35
2022/06/02 09:48:10;;;;;;;3.13;2.78;;;;;;;17.52;54.81;102215.97;4993529;28;20042;-35
2022/06/02 09:51:00;;;;;;;3.00;2.70;;;;;;;17.86;55.23;102216.91;4993447;28;20038;-35
2022/06/02 09:53:44;;;;;;;4.40;3.40;;;;;;;17.68;52.19;102206.97;4993264;28;20042;-35
2022/06/02 09:56:26;;;;;;;4.20;3.80;;;;;;;17.31;52.67;102211.16;4993267;28;20545;-35
2022/06/02 09:58:55;;;;;;;3.50;3.10;;;;;;;17.38;52.04;102198.19;4993029;28;20022;-35
2022/06/02 10:01:20;;;;;;;3.78;3.45;;;;;;;16.69;53.01;102219.94;4992979;28;20071;-36
2022/06/02 10:04:02;;;;;;;;;;;;;;;17.09;53.81;102217.31;4993870;28;20543;-35
2022/06/02 10:06:46;;;;;;;4.15;3.28;;;;;;;17.30;53.64;102207.59;4993342;28;19972;-35
2022/06/02 10:09:30;;;;;;;4.07;2.67;;;;;;;17.81;51.69;102219.53;4992165;28;20097;-37
2022/06/02 10:15:40;;;;;;;31.90;4.85;;;;;;;18.48;51.88;102203.13;4993365;28;20136;-35
2022/06/02 10:18:24;;;;;;;3.42;3.13;;;;;;;18.64;52.32;102200.63;4993297;28;20088;-35
2022/06/02 10:21:00;;;;;;;3.90;3.50;;;;;;;18.60;50.24;102197.56;4992719;28;20061;-35
2022/06/02 10:23:38;;;;;;;3.93;3.40;;;;;;;18.89;51.49;102200.19;5070760;28;20040;-35
2022/06/02 10:26:40;;;;;;;3.80;3.50;;;;;;;18.73;49.36;102205.44;5073573;28;20469;-35
2022/06/02 10:29:32;;;;;;;3.38;3.08;;;;;;;18.61;49.17;102206.63;5074382;28;20029;-35
2022/06/02 10:32:25;;;;;;;3.85;2.80;;;;;;;18.80;51.02;102179.78;5074030;28;20425;-35
2022/06/02 10:35:23;;;;;;;4.95;4.22;;;;;;;18.53;49.25;102208.69;5073797;28;20116;-35
2022/06/02 10:38:14;;;;;;;4.20;3.72;;;;;;;18.84;50.29;102202.84;5073802;28;20032;-35
2022/06/02 10:40:56;;;;;;;4.30;3.90;;;;;;;18.85;49.68;102186.16;5073731;28;20035;-36
2022/06/02 10:43:32;;;;;;;4.95;4.05;;;;;;;19.03;50.14;102195.97;5073691;28;20033;-35
2022/06/02 10:46:34;;;;;;;4.30;4.00;;;;;;;19.08;50.74;102195.19;5073683;28;20060;-35
2022/06/02 10:49:30;;;;;;;4.05;3.75;;;;;;;19.31;50.18;102189.44;5074094;28;20039;-36
2022/06/02 10:52:30;;;;;;;4.95;4.13;;;;;;;19.30;49.04;102194.13;5074303;28;20029;-36
2022/06/02 10:55:20;;;;;;;4.25;3.85;;;;;;;19.29;48.70;102186.97;5074004;28;20056;-35
2022/06/02 10:57:45;;;;;;;4.28;3.70;;;;;;;19.48;49.10;102189.38;5073760;28;20033;-35
2022/06/02 11:00:19;;;;;;;;;;;;;;;19.64;47.93;102176.66;5073719;28;20465;-36
2022/06/02 11:03:12;;;;;;;4.50;4.10;;;;;;;18.94;49.44;102178.34;5073342;28;19912;-35
2022/06/02 11:06:15;;;;;;;4.20;3.80;;;;;;;18.96;50.16;102181.63;5073628;28;20055;-36
2022/06/02 11:09:03;;;;;;;4.32;3.97;;;;;;;18.31;50.64;102183.16;5050860;28;20033;-36
2022/06/02 11:11:38;;;;;;;6.70;4.18;;;;;;;18.24;50.95;102190.72;5050930;28;20060;-35
2022/06/02 11:14:36;;;;;;;3.65;3.35;;;;;;;18.21;50.46;102177.53;5051533;28;20033;-35
2022/06/02 11:17:17;;;;;;;4.63;4.22;;;;;;;18.12;51.06;102177.13;5051170;28;20136;-36
2022/06/02 11:20:20;;;;;;;4.20;3.80;;;;;;;17.90;49.89;102176.19;5050382;28;20036;-35
2022/06/02 11:23:23;;;;;;;4.88;4.40;;;;;;;17.81;51.16;102175.75;5050925;28;20179;-35
2022/06/02 11:26:06;;;;;;;4.10;3.70;;;;;;;17.99;50.00;102161.84;5050730;28;20051;-35
2022/06/02 11:28:49;;;;;;;4.22;3.70;;;;;;;18.83;50.88;102168.31;5051133;28;20083;-35
2022/06/02 11:31:24;;;;;;;3.97;3.67;;;;;;;19.17;49.15;102167.06;5050594;28;20033;-35
2022/06/02 11:34:04;;;;;;;4.18;3.78;;;;;;;19.27;49.09;102161.69;5050735;28;20116;-35
2022/06/02 11:36:51;;;;;;;4.20;3.78;;;;;;;19.27;46.95;102158.13;5051214;28;20041;-36
2022/06/02 11:39:34;;;;;;;;;;;;;;;19.59;47.62;102158.22;5050956;28;20059;-36
2022/06/02 11:42:23;;;;;;;3.90;3.40;;;;;;;19.02;45.97;102164.97;5055763;28;19908;-36
2022/06/02 11:45:12;;;;;;;4.32;3.30;;;;;;;18.77;48.10;102172.88;5072753;28;20050;-35
2022/06/02 11:47:58;;;;;;;3.90;3.50;;;;;;;18.58;48.64;102155.88;5050545;28;20449;-35
2022/06/02 11:50:48;;;;;;;4.40;3.77;;;;;;;18.57;50.31;102151.50;5050897;28;20465;-35
2022/06/02 11:53:39;;;;;;;4.55;3.78;;;;;;;18.65;49.78;102162.03;5050608;28;20272;-35
2022/06/02 11:56:29;;;;;;;4.43;4.00;;;;;;;18.79;51.70;102159.78;5050602;28;20056;-35
2022/06/02 11:59:23;;;;;;;5.55;4.75;;;;;;;19.26;49.33;102154.56;5049925;28;20044;-36
2022/06/02 12:01:52;;;;;;;5.47;3.72;;;;;;;19.25;47.20;102152.91;5033964;28;20033;-35
2022/06/02 12:04:43;;;;;;;4.93;4.10;;;;;;;19.34;45.54;102149.72;5050253;28;20032;-36
2022/06/02 12:07:36;;;;;;;4.28;3.88;;;;;;;19.38;44.99;102142.66;5050468;28;20083;-36
2022/06/02 12:10:20;;;;;;;3.30;3.00;;;;;;;19.61;45.01;102138.75;5050509;28;20127;-35
2022/06/02 12:12:58;;;;;;;4.55;3.80;;;;;;;19.47;44.53;102147.41;5050457;28;20044;-36
2022/06/02 12:15:35;;;;;;;3.40;3.10;;;;;;;19.43;45.19;102138.03;5050270;28;20540;-36
2022/06/02 12:18:34;;;;;;;5.10;3.33;;;;;;;19.36;45.35;102125.59;5050595;28;20040;-36
2022/06/02 12:21:31;;;;;;;3.60;3.30;;;;;;;19.12;46.53;102125.06;5050062;28;20025;-35
2022/06/02 12:24:05;;;;;;;3.97;3.37;;;;;;;19.07;45.64;102125.00;5054773;28;20083;-36
2022/06/02 12:27:07;;;;;;;3.78;3.33;;;;;;;19.43;44.77;102127.06;5072589;28;20040;-36
2022/06/02 12:30:10;;;;;;;3.50;3.20;;;;;;;19.41;44.58;102118.25;5072395;28;20421;-36
2022/06/02 12:32:47;;;;;;;3.70;3.40;;;;;;;19.78;45.09;102104.63;5074032;28;20028;-36
2022/06/02 12:35:47;;;;;;;4.05;3.47;;;;;;;20.15;43.97;102114.75;5076022;28;20513;-36
2022/06/02 12:38:34;;;;;;;4.20;3.13;;;;;;;20.31;41.53;102108.28;5076581;28;20033;-36
2022/06/02 12:41:25;;;;;;;4.47;3.72;;;;;;;20.23;41.95;102107.97;5076217;28;20063;-36
2022/06/02 12:44:09;;;;;;;3.08;2.75;;;;;;;20.78;42.65;102109.38;5075879;28;20044;-36
2022/06/02 12:47:26;;;;;;;4.03;3.30;;;;;;;20.74;42.58;102109.09;5076355;28;20067;-36
2022/06/02 12:50:18;;;;;;;4.00;3.25;;;;;;;20.18;42.88;102089.53;5053450;28;20119;-36
2022/06/02 12:52:50;;;;;;;3.25;2.90;;;;;;;20.46;42.47;102098.47;5054187;28;20075;-36
2022/06/02 12:55:49;;;;;;;4.00;3.60;;;;;;;20.23;43.06;102089.56;5053457;28;20041;-36
2022/06/02 12:58:41;;;;;;;3.10;2.80;;;;;;;20.57;42.36;102091.97;5054173;28;20116;-36